Kansas City, Kansas
Current Conditions -  °F | °C
As of 3:54 PM on Friday 28 Nov 2014 (Local Time) from KMKC Reporting Station
Clear Clear  
Wind Chill: 16°   Ceiling: Unl
Heat Index: 16°   Visibility: 10mi
Dew Point:   Wind: 10mph
Humidity: 36%   Direction: 200°SSW
Pressure: 29.8"   Gusts: NA
Location:  39.11°N, 94.63°W
Report Text: KMKC 282154Z 20009KT 10SM CLR 16/01 A2980 RMK AO2 SLP092 T01560006
Loading
Personal Weather Stations






























Interactive Weather Map New forecast layout! Learn more

10-Day Weather Forecast

Advertisements
Track Severe Weather on mobile